sensor_id;sensor_type;location;lat;lon;timestamp;P1;durP1;ratioP1;P2;durP2;ratioP2
53521;SDS011;39398;48.382;9.802;2023-06-01T00:04:45;19.50;;;4.03;;
53521;SDS011;39398;48.382;9.802;2023-06-01T00:09:47;8.10;;;3.25;;
53521;SDS011;39398;48.382;9.802;2023-06-01T00:14:50;5.70;;;3.03;;
53521;SDS011;39398;48.382;9.802;2023-06-01T00:19:51;7.00;;;2.42;;
53521;SDS011;39398;48.382;9.802;2023-06-01T00:24:53;7.07;;;3.10;;
53521;SDS011;39398;48.382;9.802;2023-06-01T00:29:56;6.63;;;3.47;;
53521;SDS011;39398;48.382;9.802;2023-06-01T00:34:58;9.27;;;3.60;;
53521;SDS011;39398;48.382;9.802;2023-06-01T00:39:59;9.57;;;3.72;;
53521;SDS011;39398;48.382;9.802;2023-06-01T00:45:03;7.15;;;3.40;;
53521;SDS011;39398;48.382;9.802;2023-06-01T00:50:05;7.00;;;2.55;;
53521;SDS011;39398;48.382;9.802;2023-06-01T00:55:07;6.10;;;2.95;;
53521;SDS011;39398;48.382;9.802;2023-06-01T01:00:12;5.35;;;3.10;;
53521;SDS011;39398;48.382;9.802;2023-06-01T01:05:15;3.88;;;2.47;;
53521;SDS011;39398;48.382;9.802;2023-06-01T01:10:19;3.47;;;2.20;;
53521;SDS011;39398;48.382;9.802;2023-06-01T01:15:28;7.88;;;3.03;;
53521;SDS011;39398;48.382;9.802;2023-06-01T01:20:35;7.22;;;2.75;;
53521;SDS011;39398;48.382;9.802;2023-06-01T01:31:11;5.30;;;2.53;;
53521;SDS011;39398;48.382;9.802;2023-06-01T01:36:14;4.32;;;2.50;;
53521;SDS011;39398;48.382;9.802;2023-06-01T01:41:17;9.13;;;4.53;;
53521;SDS011;39398;48.382;9.802;2023-06-01T01:46:23;6.28;;;3.00;;
53521;SDS011;39398;48.382;9.802;2023-06-01T01:51:27;6.78;;;3.60;;
53521;SDS011;39398;48.382;9.802;2023-06-01T01:56:41;5.55;;;3.20;;
53521;SDS011;39398;48.382;9.802;2023-06-01T02:01:45;5.97;;;3.33;;
53521;SDS011;39398;48.382;9.802;2023-06-01T02:06:47;5.75;;;3.15;;
53521;SDS011;39398;48.382;9.802;2023-06-01T02:11:49;7.38;;;3.30;;
53521;SDS011;39398;48.382;9.802;2023-06-01T02:16:52;10.55;;;3.95;;
53521;SDS011;39398;48.382;9.802;2023-06-01T02:21:53;8.48;;;3.97;;
53521;SDS011;39398;48.382;9.802;2023-06-01T02:26:55;7.18;;;3.88;;
53521;SDS011;39398;48.382;9.802;2023-06-01T02:31:58;6.57;;;3.17;;
53521;SDS011;39398;48.382;9.802;2023-06-01T02:37:00;9.82;;;3.95;;
53521;SDS011;39398;48.382;9.802;2023-06-01T02:42:01;8.27;;;4.03;;
53521;SDS011;39398;48.382;9.802;2023-06-01T02:47:06;6.82;;;3.58;;
53521;SDS011;39398;48.382;9.802;2023-06-01T02:52:08;6.03;;;3.80;;
53521;SDS011;39398;48.382;9.802;2023-06-01T02:57:10;10.07;;;3.80;;
53521;SDS011;39398;48.382;9.802;2023-06-01T03:02:13;7.72;;;3.80;;
53521;SDS011;39398;48.382;9.802;2023-06-01T03:07:14;10.43;;;4.40;;
53521;SDS011;39398;48.382;9.802;2023-06-01T03:12:16;14.50;;;4.40;;
53521;SDS011;39398;48.382;9.802;2023-06-01T03:17:19;8.90;;;4.45;;
53521;SDS011;39398;48.382;9.802;2023-06-01T03:22:20;8.85;;;3.53;;
53521;SDS011;39398;48.382;9.802;2023-06-01T03:27:22;8.13;;;4.50;;
53521;SDS011;39398;48.382;9.802;2023-06-01T03:32:25;8.60;;;3.72;;
53521;SDS011;39398;48.382;9.802;2023-06-01T03:37:27;5.82;;;3.78;;
53521;SDS011;39398;48.382;9.802;2023-06-01T03:42:28;8.55;;;4.15;;
53521;SDS011;39398;48.382;9.802;2023-06-01T03:47:31;9.95;;;5.07;;
53521;SDS011;39398;48.382;9.802;2023-06-01T03:52:34;10.02;;;5.05;;
53521;SDS011;39398;48.382;9.802;2023-06-01T03:57:36;6.82;;;4.40;;
53521;SDS011;39398;48.382;9.802;2023-06-01T04:02:39;6.95;;;4.13;;
53521;SDS011;39398;48.382;9.802;2023-06-01T04:07:41;9.50;;;4.47;;
53521;SDS011;39398;48.382;9.802;2023-06-01T04:12:43;8.40;;;4.28;;
53521;SDS011;39398;48.382;9.802;2023-06-01T04:17:47;9.70;;;4.80;;
53521;SDS011;39398;48.382;9.802;2023-06-01T04:22:48;13.00;;;4.18;;
53521;SDS011;39398;48.382;9.802;2023-06-01T04:27:50;9.57;;;4.40;;
53521;SDS011;39398;48.382;9.802;2023-06-01T04:32:53;7.25;;;3.70;;
53521;SDS011;39398;48.382;9.802;2023-06-01T04:37:55;9.85;;;3.70;;
53521;SDS011;39398;48.382;9.802;2023-06-01T04:42:57;9.25;;;4.10;;
53521;SDS011;39398;48.382;9.802;2023-06-01T04:48:00;7.72;;;3.72;;
53521;SDS011;39398;48.382;9.802;2023-06-01T04:53:01;6.90;;;3.63;;
53521;SDS011;39398;48.382;9.802;2023-06-01T04:58:03;11.25;;;4.38;;
53521;SDS011;39398;48.382;9.802;2023-06-01T05:03:07;9.50;;;4.07;;
53521;SDS011;39398;48.382;9.802;2023-06-01T05:08:09;7.18;;;4.10;;
53521;SDS011;39398;48.382;9.802;2023-06-01T05:13:11;6.75;;;3.85;;
53521;SDS011;39398;48.382;9.802;2023-06-01T05:18:14;4.90;;;3.03;;
53521;SDS011;39398;48.382;9.802;2023-06-01T05:23:15;7.78;;;3.85;;
53521;SDS011;39398;48.382;9.802;2023-06-01T05:28:20;8.23;;;3.20;;
53521;SDS011;39398;48.382;9.802;2023-06-01T05:33:23;8.15;;;4.38;;
53521;SDS011;39398;48.382;9.802;2023-06-01T05:38:25;10.40;;;3.55;;
53521;SDS011;39398;48.382;9.802;2023-06-01T05:43:26;6.47;;;3.55;;
53521;SDS011;39398;48.382;9.802;2023-06-01T05:48:29;5.10;;;3.28;;
53521;SDS011;39398;48.382;9.802;2023-06-01T05:53:31;9.40;;;3.38;;
53521;SDS011;39398;48.382;9.802;2023-06-01T05:58:33;6.72;;;3.83;;
53521;SDS011;39398;48.382;9.802;2023-06-01T06:03:36;7.55;;;3.55;;
53521;SDS011;39398;48.382;9.802;2023-06-01T06:08:37;8.38;;;3.05;;
53521;SDS011;39398;48.382;9.802;2023-06-01T06:13:39;11.13;;;3.58;;
53521;SDS011;39398;48.382;9.802;2023-06-01T06:18:42;5.85;;;3.03;;
53521;SDS011;39398;48.382;9.802;2023-06-01T06:23:44;6.38;;;3.55;;
53521;SDS011;39398;48.382;9.802;2023-06-01T06:28:46;8.95;;;2.88;;
53521;SDS011;39398;48.382;9.802;2023-06-01T06:33:49;9.60;;;3.55;;
53521;SDS011;39398;48.382;9.802;2023-06-01T06:38:50;11.07;;;4.70;;
53521;SDS011;39398;48.382;9.802;2023-06-01T06:43:52;7.57;;;3.45;;
53521;SDS011;39398;48.382;9.802;2023-06-01T06:48:55;8.18;;;3.95;;
53521;SDS011;39398;48.382;9.802;2023-06-01T06:53:57;5.32;;;3.15;;
53521;SDS011;39398;48.382;9.802;2023-06-01T06:58:59;6.05;;;3.45;;
53521;SDS011;39398;48.382;9.802;2023-06-01T07:04:10;9.13;;;3.95;;
53521;SDS011;39398;48.382;9.802;2023-06-01T07:09:11;9.43;;;4.43;;
53521;SDS011;39398;48.382;9.802;2023-06-01T07:14:13;8.30;;;4.13;;
53521;SDS011;39398;48.382;9.802;2023-06-01T07:19:16;12.40;;;4.60;;
53521;SDS011;39398;48.382;9.802;2023-06-01T07:24:18;9.65;;;4.25;;
53521;SDS011;39398;48.382;9.802;2023-06-01T07:29:20;4.95;;;2.95;;
53521;SDS011;39398;48.382;9.802;2023-06-01T07:34:23;8.75;;;4.28;;
53521;SDS011;39398;48.382;9.802;2023-06-01T07:39:24;7.90;;;3.75;;
53521;SDS011;39398;48.382;9.802;2023-06-01T07:44:26;7.90;;;3.80;;
53521;SDS011;39398;48.382;9.802;2023-06-01T07:49:29;6.05;;;3.65;;
53521;SDS011;39398;48.382;9.802;2023-06-01T07:54:31;7.38;;;3.67;;
53521;SDS011;39398;48.382;9.802;2023-06-01T07:59:34;8.40;;;4.40;;
53521;SDS011;39398;48.382;9.802;2023-06-01T08:04:36;5.25;;;3.13;;
53521;SDS011;39398;48.382;9.802;2023-06-01T08:09:38;7.40;;;4.28;;
53521;SDS011;39398;48.382;9.802;2023-06-01T08:14:40;11.05;;;3.78;;
53521;SDS011;39398;48.382;9.802;2023-06-01T08:19:43;11.85;;;5.07;;
53521;SDS011;39398;48.382;9.802;2023-06-01T08:24:44;6.75;;;3.50;;
53521;SDS011;39398;48.382;9.802;2023-06-01T08:29:46;4.38;;;3.00;;
53521;SDS011;39398;48.382;9.802;2023-06-01T08:34:50;7.25;;;3.65;;
53521;SDS011;39398;48.382;9.802;2023-06-01T08:39:51;7.82;;;3.80;;
53521;SDS011;39398;48.382;9.802;2023-06-01T08:44:53;6.15;;;3.80;;
53521;SDS011;39398;48.382;9.802;2023-06-01T08:49:57;5.22;;;3.67;;
53521;SDS011;39398;48.382;9.802;2023-06-01T08:54:59;8.65;;;4.25;;
53521;SDS011;39398;48.382;9.802;2023-06-01T09:00:02;5.68;;;2.95;;
53521;SDS011;39398;48.382;9.802;2023-06-01T09:05:05;8.45;;;4.13;;
53521;SDS011;39398;48.382;9.802;2023-06-01T09:10:07;6.82;;;4.38;;
53521;SDS011;39398;48.382;9.802;2023-06-01T09:15:10;6.10;;;3.40;;
53521;SDS011;39398;48.382;9.802;2023-06-01T09:20:16;7.45;;;4.65;;
53521;SDS011;39398;48.382;9.802;2023-06-01T09:25:24;11.63;;;4.50;;
53521;SDS011;39398;48.382;9.802;2023-06-01T09:30:36;6.47;;;4.20;;
53521;SDS011;39398;48.382;9.802;2023-06-01T09:35:41;4.63;;;3.47;;
53521;SDS011;39398;48.382;9.802;2023-06-01T09:40:44;7.97;;;3.58;;
53521;SDS011;39398;48.382;9.802;2023-06-01T09:46:03;6.40;;;3.15;;
53521;SDS011;39398;48.382;9.802;2023-06-01T09:51:09;5.95;;;3.53;;
53521;SDS011;39398;48.382;9.802;2023-06-01T09:56:22;6.83;;;3.30;;
53521;SDS011;39398;48.382;9.802;2023-06-01T10:01:24;5.20;;;3.22;;
53521;SDS011;39398;48.382;9.802;2023-06-01T10:06:29;6.65;;;3.67;;
53521;SDS011;39398;48.382;9.802;2023-06-01T10:11:33;8.00;;;4.47;;
53521;SDS011;39398;48.382;9.802;2023-06-01T10:16:35;6.85;;;4.15;;
53521;SDS011;39398;48.382;9.802;2023-06-01T10:21:38;11.52;;;4.10;;
53521;SDS011;39398;48.382;9.802;2023-06-01T10:26:42;6.47;;;4.00;;
53521;SDS011;39398;48.382;9.802;2023-06-01T10:31:48;4.85;;;2.63;;
53521;SDS011;39398;48.382;9.802;2023-06-01T10:42:34;8.65;;;4.32;;
53521;SDS011;39398;48.382;9.802;2023-06-01T10:47:44;11.23;;;4.70;;
53521;SDS011;39398;48.382;9.802;2023-06-01T10:52:48;7.22;;;4.50;;
53521;SDS011;39398;48.382;9.802;2023-06-01T10:57:50;7.30;;;4.25;;
53521;SDS011;39398;48.382;9.802;2023-06-01T11:02:53;6.75;;;4.35;;
53521;SDS011;39398;48.382;9.802;2023-06-01T11:07:57;9.20;;;4.70;;
53521;SDS011;39398;48.382;9.802;2023-06-01T11:13:12;8.63;;;4.72;;
53521;SDS011;39398;48.382;9.802;2023-06-01T11:23:45;8.90;;;4.45;;
53521;SDS011;39398;48.382;9.802;2023-06-01T11:28:47;7.35;;;4.20;;
53521;SDS011;39398;48.382;9.802;2023-06-01T11:33:50;6.88;;;3.65;;
53521;SDS011;39398;48.382;9.802;2023-06-01T11:38:54;7.18;;;4.60;;
53521;SDS011;39398;48.382;9.802;2023-06-01T11:43:57;6.93;;;4.38;;
53521;SDS011;39398;48.382;9.802;2023-06-01T11:48:59;8.30;;;4.25;;
53521;SDS011;39398;48.382;9.802;2023-06-01T11:54:03;12.10;;;4.68;;
53521;SDS011;39398;48.382;9.802;2023-06-01T11:59:05;9.07;;;4.85;;
53521;SDS011;39398;48.382;9.802;2023-06-01T12:04:11;5.88;;;4.13;;
53521;SDS011;39398;48.382;9.802;2023-06-01T12:09:15;8.88;;;4.00;;
53521;SDS011;39398;48.382;9.802;2023-06-01T12:14:17;7.30;;;4.55;;
53521;SDS011;39398;48.382;9.802;2023-06-01T12:19:18;8.93;;;3.97;;
53521;SDS011;39398;48.382;9.802;2023-06-01T12:24:28;9.70;;;4.55;;
53521;SDS011;39398;48.382;9.802;2023-06-01T12:29:34;6.93;;;4.55;;
53521;SDS011;39398;48.382;9.802;2023-06-01T12:34:37;5.57;;;4.05;;
53521;SDS011;39398;48.382;9.802;2023-06-01T12:39:40;3.80;;;2.83;;
53521;SDS011;39398;48.382;9.802;2023-06-01T12:44:43;10.85;;;3.95;;
53521;SDS011;39398;48.382;9.802;2023-06-01T12:55:06;7.10;;;4.32;;
53521;SDS011;39398;48.382;9.802;2023-06-01T13:00:09;8.20;;;4.43;;
53521;SDS011;39398;48.382;9.802;2023-06-01T13:05:11;5.82;;;3.72;;
53521;SDS011;39398;48.382;9.802;2023-06-01T13:10:14;9.15;;;4.47;;
53521;SDS011;39398;48.382;9.802;2023-06-01T13:15:16;7.03;;;4.28;;
53521;SDS011;39398;48.382;9.802;2023-06-01T13:20:18;7.57;;;4.15;;
53521;SDS011;39398;48.382;9.802;2023-06-01T13:25:21;6.70;;;4.47;;
53521;SDS011;39398;48.382;9.802;2023-06-01T13:30:22;9.32;;;5.00;;
53521;SDS011;39398;48.382;9.802;2023-06-01T13:35:24;5.88;;;3.35;;
53521;SDS011;39398;48.382;9.802;2023-06-01T13:40:27;10.30;;;2.65;;
53521;SDS011;39398;48.382;9.802;2023-06-01T13:45:29;4.10;;;2.75;;
53521;SDS011;39398;48.382;9.802;2023-06-01T13:50:30;7.32;;;3.95;;
53521;SDS011;39398;48.382;9.802;2023-06-01T13:55:33;12.13;;;4.20;;
53521;SDS011;39398;48.382;9.802;2023-06-01T14:00:35;3.53;;;2.60;;
53521;SDS011;39398;48.382;9.802;2023-06-01T14:05:36;5.28;;;2.95;;
53521;SDS011;39398;48.382;9.802;2023-06-01T14:10:59;8.15;;;3.85;;
53521;SDS011;39398;48.382;9.802;2023-06-01T14:16:01;6.88;;;4.20;;
53521;SDS011;39398;48.382;9.802;2023-06-01T14:21:03;10.68;;;5.13;;
53521;SDS011;39398;48.382;9.802;2023-06-01T14:26:06;4.15;;;2.55;;
53521;SDS011;39398;48.382;9.802;2023-06-01T14:31:08;8.40;;;4.40;;
53521;SDS011;39398;48.382;9.802;2023-06-01T14:36:09;6.15;;;4.13;;
53521;SDS011;39398;48.382;9.802;2023-06-01T14:41:12;10.30;;;4.88;;
53521;SDS011;39398;48.382;9.802;2023-06-01T14:46:14;7.07;;;4.20;;
53521;SDS011;39398;48.382;9.802;2023-06-01T14:51:16;7.22;;;4.05;;
53521;SDS011;39398;48.382;9.802;2023-06-01T14:56:19;6.40;;;3.67;;
53521;SDS011;39398;48.382;9.802;2023-06-01T15:01:21;4.45;;;3.25;;
53521;SDS011;39398;48.382;9.802;2023-06-01T15:06:23;4.57;;;3.55;;
53521;SDS011;39398;48.382;9.802;2023-06-01T15:11:26;5.72;;;3.85;;
53521;SDS011;39398;48.382;9.802;2023-06-01T15:16:27;7.05;;;4.50;;
53521;SDS011;39398;48.382;9.802;2023-06-01T15:21:29;7.05;;;3.75;;
53521;SDS011;39398;48.382;9.802;2023-06-01T15:26:32;9.80;;;4.47;;
53521;SDS011;39398;48.382;9.802;2023-06-01T15:31:34;4.82;;;3.10;;
53521;SDS011;39398;48.382;9.802;2023-06-01T15:36:35;7.05;;;3.40;;
53521;SDS011;39398;48.382;9.802;2023-06-01T15:41:38;5.05;;;3.30;;
53521;SDS011;39398;48.382;9.802;2023-06-01T15:46:40;5.32;;;3.33;;
53521;SDS011;39398;48.382;9.802;2023-06-01T15:51:45;5.00;;;2.80;;
53521;SDS011;39398;48.382;9.802;2023-06-01T15:56:48;3.13;;;2.65;;
53521;SDS011;39398;48.382;9.802;2023-06-01T16:01:50;8.38;;;4.30;;
53521;SDS011;39398;48.382;9.802;2023-06-01T16:06:51;6.50;;;4.00;;
53521;SDS011;39398;48.382;9.802;2023-06-01T16:11:54;4.32;;;2.65;;
53521;SDS011;39398;48.382;9.802;2023-06-01T16:16:56;6.20;;;3.53;;
53521;SDS011;39398;48.382;9.802;2023-06-01T16:21:58;4.53;;;3.58;;
53521;SDS011;39398;48.382;9.802;2023-06-01T16:27:01;6.82;;;3.40;;
53521;SDS011;39398;48.382;9.802;2023-06-01T16:32:02;5.20;;;3.38;;
53521;SDS011;39398;48.382;9.802;2023-06-01T16:37:05;5.20;;;2.92;;
53521;SDS011;39398;48.382;9.802;2023-06-01T16:42:08;4.32;;;3.13;;
53521;SDS011;39398;48.382;9.802;2023-06-01T16:47:10;4.32;;;3.35;;
53521;SDS011;39398;48.382;9.802;2023-06-01T16:52:11;6.43;;;3.30;;
53521;SDS011;39398;48.382;9.802;2023-06-01T16:57:14;6.07;;;3.17;;
53521;SDS011;39398;48.382;9.802;2023-06-01T17:02:16;5.15;;;2.95;;
53521;SDS011;39398;48.382;9.802;2023-06-01T17:07:17;7.07;;;3.13;;
53521;SDS011;39398;48.382;9.802;2023-06-01T17:12:20;6.43;;;3.20;;
53521;SDS011;39398;48.382;9.802;2023-06-01T17:17:22;5.57;;;2.72;;
53521;SDS011;39398;48.382;9.802;2023-06-01T17:22:24;1.85;;;1.65;;
53521;SDS011;39398;48.382;9.802;2023-06-01T17:27:27;3.17;;;2.55;;
53521;SDS011;39398;48.382;9.802;2023-06-01T17:32:29;4.05;;;2.17;;
53521;SDS011;39398;48.382;9.802;2023-06-01T17:37:30;7.00;;;2.90;;
53521;SDS011;39398;48.382;9.802;2023-06-01T17:42:33;2.92;;;2.22;;
53521;SDS011;39398;48.382;9.802;2023-06-01T17:47:35;5.47;;;3.10;;
53521;SDS011;39398;48.382;9.802;2023-06-01T17:52:37;5.22;;;2.70;;
53521;SDS011;39398;48.382;9.802;2023-06-01T17:57:40;5.18;;;2.58;;
53521;SDS011;39398;48.382;9.802;2023-06-01T18:02:41;5.03;;;3.10;;
53521;SDS011;39398;48.382;9.802;2023-06-01T18:07:43;4.30;;;2.88;;
53521;SDS011;39398;48.382;9.802;2023-06-01T18:12:46;6.03;;;3.13;;
53521;SDS011;39398;48.382;9.802;2023-06-01T18:17:47;4.18;;;3.13;;
53521;SDS011;39398;48.382;9.802;2023-06-01T18:22:49;4.47;;;3.00;;
53521;SDS011;39398;48.382;9.802;2023-06-01T18:27:52;8.15;;;3.50;;
53521;SDS011;39398;48.382;9.802;2023-06-01T18:32:54;6.82;;;3.40;;
53521;SDS011;39398;48.382;9.802;2023-06-01T18:37:55;6.30;;;3.25;;
53521;SDS011;39398;48.382;9.802;2023-06-01T18:42:58;4.53;;;3.33;;
53521;SDS011;39398;48.382;9.802;2023-06-01T18:48:00;6.25;;;2.90;;
53521;SDS011;39398;48.382;9.802;2023-06-01T18:53:02;7.28;;;3.45;;
53521;SDS011;39398;48.382;9.802;2023-06-01T18:58:05;6.82;;;3.40;;
53521;SDS011;39398;48.382;9.802;2023-06-01T19:03:06;6.50;;;3.38;;
53521;SDS011;39398;48.382;9.802;2023-06-01T19:08:08;6.30;;;3.15;;
53521;SDS011;39398;48.382;9.802;2023-06-01T19:13:13;7.65;;;3.58;;
53521;SDS011;39398;48.382;9.802;2023-06-01T19:18:15;7.25;;;3.55;;
53521;SDS011;39398;48.382;9.802;2023-06-01T19:23:17;7.15;;;3.50;;
53521;SDS011;39398;48.382;9.802;2023-06-01T19:28:20;9.23;;;3.17;;
53521;SDS011;39398;48.382;9.802;2023-06-01T19:33:22;5.93;;;2.58;;
53521;SDS011;39398;48.382;9.802;2023-06-01T19:38:25;5.45;;;2.80;;
53521;SDS011;39398;48.382;9.802;2023-06-01T19:43:35;6.22;;;3.50;;
53521;SDS011;39398;48.382;9.802;2023-06-01T19:48:39;5.90;;;2.88;;
53521;SDS011;39398;48.382;9.802;2023-06-01T19:53:42;5.00;;;2.78;;
53521;SDS011;39398;48.382;9.802;2023-06-01T19:58:46;5.03;;;2.90;;
53521;SDS011;39398;48.382;9.802;2023-06-01T20:03:49;6.57;;;3.08;;
53521;SDS011;39398;48.382;9.802;2023-06-01T20:08:51;5.07;;;2.60;;
53521;SDS011;39398;48.382;9.802;2023-06-01T20:14:01;4.22;;;3.00;;
53521;SDS011;39398;48.382;9.802;2023-06-01T20:19:04;9.88;;;3.20;;
53521;SDS011;39398;48.382;9.802;2023-06-01T20:24:08;5.10;;;2.53;;
53521;SDS011;39398;48.382;9.802;2023-06-01T20:29:11;7.35;;;3.20;;
53521;SDS011;39398;48.382;9.802;2023-06-01T20:34:15;5.18;;;3.00;;
53521;SDS011;39398;48.382;9.802;2023-06-01T20:39:22;12.07;;;3.00;;
53521;SDS011;39398;48.382;9.802;2023-06-01T20:44:26;7.88;;;3.03;;
53521;SDS011;39398;48.382;9.802;2023-06-01T20:49:28;3.78;;;2.67;;
53521;SDS011;39398;48.382;9.802;2023-06-01T20:54:29;4.45;;;2.35;;
53521;SDS011;39398;48.382;9.802;2023-06-01T20:59:32;5.40;;;2.85;;
53521;SDS011;39398;48.382;9.802;2023-06-01T21:04:35;4.72;;;2.47;;
53521;SDS011;39398;48.382;9.802;2023-06-01T21:09:38;7.20;;;2.75;;
53521;SDS011;39398;48.382;9.802;2023-06-01T21:14:41;6.38;;;2.65;;
53521;SDS011;39398;48.382;9.802;2023-06-01T21:19:42;5.93;;;2.20;;
53521;SDS011;39398;48.382;9.802;2023-06-01T21:24:44;5.78;;;2.67;;
53521;SDS011;39398;48.382;9.802;2023-06-01T21:29:47;4.75;;;2.30;;
53521;SDS011;39398;48.382;9.802;2023-06-01T21:34:49;3.83;;;2.20;;
53521;SDS011;39398;48.382;9.802;2023-06-01T21:39:50;8.95;;;2.22;;
53521;SDS011;39398;48.382;9.802;2023-06-01T21:44:54;7.00;;;2.40;;
53521;SDS011;39398;48.382;9.802;2023-06-01T21:49:55;5.05;;;2.80;;
53521;SDS011;39398;48.382;9.802;2023-06-01T21:54:57;3.17;;;2.40;;
53521;SDS011;39398;48.382;9.802;2023-06-01T22:00:00;6.32;;;2.47;;
53521;SDS011;39398;48.382;9.802;2023-06-01T22:05:02;4.82;;;2.63;;
53521;SDS011;39398;48.382;9.802;2023-06-01T22:10:04;6.25;;;2.30;;
53521;SDS011;39398;48.382;9.802;2023-06-01T22:15:09;4.65;;;2.38;;
53521;SDS011;39398;48.382;9.802;2023-06-01T22:20:11;3.88;;;2.50;;
53521;SDS011;39398;48.382;9.802;2023-06-01T22:25:13;10.70;;;2.60;;
53521;SDS011;39398;48.382;9.802;2023-06-01T22:30:16;5.85;;;2.40;;
53521;SDS011;39398;48.382;9.802;2023-06-01T22:35:17;4.47;;;2.45;;
53521;SDS011;39398;48.382;9.802;2023-06-01T22:40:19;3.88;;;2.45;;
53521;SDS011;39398;48.382;9.802;2023-06-01T22:45:22;5.10;;;2.28;;
53521;SDS011;39398;48.382;9.802;2023-06-01T22:50:24;3.90;;;2.25;;
53521;SDS011;39398;48.382;9.802;2023-06-01T22:55:26;4.00;;;2.30;;
53521;SDS011;39398;48.382;9.802;2023-06-01T23:00:29;2.80;;;1.48;;
53521;SDS011;39398;48.382;9.802;2023-06-01T23:05:30;6.38;;;2.67;;
53521;SDS011;39398;48.382;9.802;2023-06-01T23:10:32;4.07;;;2.55;;
53521;SDS011;39398;48.382;9.802;2023-06-01T23:15:35;7.30;;;2.83;;
53521;SDS011;39398;48.382;9.802;2023-06-01T23:20:37;3.95;;;2.42;;
53521;SDS011;39398;48.382;9.802;2023-06-01T23:25:39;6.32;;;1.77;;
53521;SDS011;39398;48.382;9.802;2023-06-01T23:30:42;8.23;;;2.20;;
53521;SDS011;39398;48.382;9.802;2023-06-01T23:35:44;5.38;;;2.45;;
53521;SDS011;39398;48.382;9.802;2023-06-01T23:40:45;3.60;;;2.38;;
53521;SDS011;39398;48.382;9.802;2023-06-01T23:45:48;5.40;;;2.33;;
53521;SDS011;39398;48.382;9.802;2023-06-01T23:50:50;3.22;;;2.20;;
53521;SDS011;39398;48.382;9.802;2023-06-01T23:55:52;3.05;;;1.90;;
